sensor_id;sensor_type;location;lat;lon;timestamp;temperature;humidity
6627;DHT22;3349;49.830;8.748;2022-09-17T00:01:00;10.30;1.00
6627;DHT22;3349;49.830;8.748;2022-09-17T00:03:34;10.30;1.00
6627;DHT22;3349;49.830;8.748;2022-09-17T00:06:05;10.30;1.00
6627;DHT22;3349;49.830;8.748;2022-09-17T00:08:36;10.30;1.00
6627;DHT22;3349;49.830;8.748;2022-09-17T00:11:07;10.20;1.00
6627;DHT22;3349;49.830;8.748;2022-09-17T00:13:35;10.20;1.00
6627;DHT22;3349;49.830;8.748;2022-09-17T00:16:02;10.30;1.00
6627;DHT22;3349;49.830;8.748;2022-09-17T00:18:28;10.20;1.00
6627;DHT22;3349;49.830;8.748;2022-09-17T00:20:55;10.20;1.00
6627;DHT22;3349;49.830;8.748;2022-09-17T00:23:22;10.20;1.00
6627;DHT22;3349;49.830;8.748;2022-09-17T00:25:48;10.20;1.00
6627;DHT22;3349;49.830;8.748;2022-09-17T00:28:16;10.20;1.00
6627;DHT22;3349;49.830;8.748;2022-09-17T00:30:44;10.20;1.00
6627;DHT22;3349;49.830;8.748;2022-09-17T00:33:12;10.10;1.00
6627;DHT22;3349;49.830;8.748;2022-09-17T00:35:39;10.10;1.00
6627;DHT22;3349;49.830;8.748;2022-09-17T00:38:06;10.10;1.00
6627;DHT22;3349;49.830;8.748;2022-09-17T00:40:33;10.10;1.00
6627;DHT22;3349;49.830;8.748;2022-09-17T00:43:00;10.10;1.00
6627;DHT22;3349;49.830;8.748;2022-09-17T00:45:28;10.10;1.00
6627;DHT22;3349;49.830;8.748;2022-09-17T00:47:58;10.10;1.00
6627;DHT22;3349;49.830;8.748;2022-09-17T00:50:28;10.10;1.00
6627;DHT22;3349;49.830;8.748;2022-09-17T00:52:58;10.10;1.00
6627;DHT22;3349;49.830;8.748;2022-09-17T00:55:29;10.20;1.00
6627;DHT22;3349;49.830;8.748;2022-09-17T00:57:58;10.20;1.00
6627;DHT22;3349;49.830;8.748;2022-09-17T01:00:29;10.10;1.00
6627;DHT22;3349;49.830;8.748;2022-09-17T01:02:56;10.20;1.00
6627;DHT22;3349;49.830;8.748;2022-09-17T01:05:30;10.10;1.00
6627;DHT22;3349;49.830;8.748;2022-09-17T01:08:04;10.10;1.00
6627;DHT22;3349;49.830;8.748;2022-09-17T01:11:02;10.10;1.00
6627;DHT22;3349;49.830;8.748;2022-09-17T01:13:42;10.00;1.00
6627;DHT22;3349;49.830;8.748;2022-09-17T01:16:18;10.00;1.00
6627;DHT22;3349;49.830;8.748;2022-09-17T01:18:56;10.00;1.00
6627;DHT22;3349;49.830;8.748;2022-09-17T01:24:39;10.00;1.00
6627;DHT22;3349;49.830;8.748;2022-09-17T01:30:31;9.90;1.00
6627;DHT22;3349;49.830;8.748;2022-09-17T01:33:04;9.90;1.00
6627;DHT22;3349;49.830;8.748;2022-09-17T01:35:38;10.00;1.00
6627;DHT22;3349;49.830;8.748;2022-09-17T01:38:14;10.00;1.00
6627;DHT22;3349;49.830;8.748;2022-09-17T01:40:48;9.90;1.00
6627;DHT22;3349;49.830;8.748;2022-09-17T01:43:20;9.90;1.00
6627;DHT22;3349;49.830;8.748;2022-09-17T01:45:51;9.90;1.00
6627;DHT22;3349;49.830;8.748;2022-09-17T01:48:19;9.90;1.00
6627;DHT22;3349;49.830;8.748;2022-09-17T01:50:50;9.90;1.00
6627;DHT22;3349;49.830;8.748;2022-09-17T01:53:20;10.00;1.00
6627;DHT22;3349;49.830;8.748;2022-09-17T01:55:50;10.00;1.00
6627;DHT22;3349;49.830;8.748;2022-09-17T01:58:23;9.90;1.00
6627;DHT22;3349;49.830;8.748;2022-09-17T02:00:57;9.90;1.00
6627;DHT22;3349;49.830;8.748;2022-09-17T02:03:28;9.90;1.00
6627;DHT22;3349;49.830;8.748;2022-09-17T02:05:59;9.90;1.00
6627;DHT22;3349;49.830;8.748;2022-09-17T02:08:30;9.90;1.00
6627;DHT22;3349;49.830;8.748;2022-09-17T02:11:06;9.80;1.00
6627;DHT22;3349;49.830;8.748;2022-09-17T02:13:38;9.90;1.00
6627;DHT22;3349;49.830;8.748;2022-09-17T02:16:11;9.90;1.00
6627;DHT22;3349;49.830;8.748;2022-09-17T02:18:44;10.00;1.00
6627;DHT22;3349;49.830;8.748;2022-09-17T02:21:15;10.00;1.00
6627;DHT22;3349;49.830;8.748;2022-09-17T02:23:57;10.10;1.00
6627;DHT22;3349;49.830;8.748;2022-09-17T02:26:29;10.20;1.00
6627;DHT22;3349;49.830;8.748;2022-09-17T02:29:01;10.20;1.00
6627;DHT22;3349;49.830;8.748;2022-09-17T02:31:31;10.30;1.00
6627;DHT22;3349;49.830;8.748;2022-09-17T02:34:00;10.20;1.00
6627;DHT22;3349;49.830;8.748;2022-09-17T02:36:29;10.30;1.00
6627;DHT22;3349;49.830;8.748;2022-09-17T02:38:59;10.30;1.00
6627;DHT22;3349;49.830;8.748;2022-09-17T02:41:35;10.40;1.00
6627;DHT22;3349;49.830;8.748;2022-09-17T02:44:08;10.30;1.00
6627;DHT22;3349;49.830;8.748;2022-09-17T02:47:03;10.30;1.00
6627;DHT22;3349;49.830;8.748;2022-09-17T02:49:45;10.40;1.00
6627;DHT22;3349;49.830;8.748;2022-09-17T02:52:23;10.40;1.00
6627;DHT22;3349;49.830;8.748;2022-09-17T02:55:00;10.40;1.00
6627;DHT22;3349;49.830;8.748;2022-09-17T02:57:35;10.40;1.00
6627;DHT22;3349;49.830;8.748;2022-09-17T03:00:08;10.40;1.00
6627;DHT22;3349;49.830;8.748;2022-09-17T03:02:42;10.40;1.00
6627;DHT22;3349;49.830;8.748;2022-09-17T03:05:11;10.40;1.00
6627;DHT22;3349;49.830;8.748;2022-09-17T03:07:39;10.40;1.00
6627;DHT22;3349;49.830;8.748;2022-09-17T03:10:06;10.40;1.00
6627;DHT22;3349;49.830;8.748;2022-09-17T03:12:34;10.40;1.00
6627;DHT22;3349;49.830;8.748;2022-09-17T03:15:01;10.40;1.00
6627;DHT22;3349;49.830;8.748;2022-09-17T03:17:28;10.40;1.00
6627;DHT22;3349;49.830;8.748;2022-09-17T03:19:57;10.40;1.00
6627;DHT22;3349;49.830;8.748;2022-09-17T03:22:23;10.40;1.00
6627;DHT22;3349;49.830;8.748;2022-09-17T03:24:50;10.40;1.00
6627;DHT22;3349;49.830;8.748;2022-09-17T03:27:17;10.50;1.00
6627;DHT22;3349;49.830;8.748;2022-09-17T03:29:43;10.50;1.00
6627;DHT22;3349;49.830;8.748;2022-09-17T03:32:10;10.50;1.00
6627;DHT22;3349;49.830;8.748;2022-09-17T03:34:37;10.50;1.00
6627;DHT22;3349;49.830;8.748;2022-09-17T03:37:05;10.50;1.00
6627;DHT22;3349;49.830;8.748;2022-09-17T03:39:32;10.50;1.00
6627;DHT22;3349;49.830;8.748;2022-09-17T03:41:58;10.50;1.00
6627;DHT22;3349;49.830;8.748;2022-09-17T03:44:25;10.50;1.00
6627;DHT22;3349;49.830;8.748;2022-09-17T03:46:52;10.50;1.00
6627;DHT22;3349;49.830;8.748;2022-09-17T03:49:19;10.50;1.00
6627;DHT22;3349;49.830;8.748;2022-09-17T03:51:45;10.50;1.00
6627;DHT22;3349;49.830;8.748;2022-09-17T03:54:13;10.50;1.00
6627;DHT22;3349;49.830;8.748;2022-09-17T03:56:40;10.50;1.00
6627;DHT22;3349;49.830;8.748;2022-09-17T03:59:07;10.40;1.00
6627;DHT22;3349;49.830;8.748;2022-09-17T04:01:34;10.40;1.00
6627;DHT22;3349;49.830;8.748;2022-09-17T04:04:01;10.40;1.00
6627;DHT22;3349;49.830;8.748;2022-09-17T04:06:28;10.50;1.00
6627;DHT22;3349;49.830;8.748;2022-09-17T04:08:55;10.50;1.00
6627;DHT22;3349;49.830;8.748;2022-09-17T04:11:23;10.50;1.00
6627;DHT22;3349;49.830;8.748;2022-09-17T04:13:50;10.40;1.00
6627;DHT22;3349;49.830;8.748;2022-09-17T04:16:17;10.40;1.00
6627;DHT22;3349;49.830;8.748;2022-09-17T04:18:43;10.50;1.00
6627;DHT22;3349;49.830;8.748;2022-09-17T04:21:10;10.50;1.00
6627;DHT22;3349;49.830;8.748;2022-09-17T04:23:37;10.50;1.00
6627;DHT22;3349;49.830;8.748;2022-09-17T04:26:04;10.50;1.00
6627;DHT22;3349;49.830;8.748;2022-09-17T04:28:32;10.40;1.00
6627;DHT22;3349;49.830;8.748;2022-09-17T04:30:58;10.40;1.00
6627;DHT22;3349;49.830;8.748;2022-09-17T04:33:25;10.50;1.00
6627;DHT22;3349;49.830;8.748;2022-09-17T04:35:52;10.40;1.00
6627;DHT22;3349;49.830;8.748;2022-09-17T04:38:19;10.40;1.00
6627;DHT22;3349;49.830;8.748;2022-09-17T04:40:47;10.40;1.00
6627;DHT22;3349;49.830;8.748;2022-09-17T04:43:14;10.40;1.00
6627;DHT22;3349;49.830;8.748;2022-09-17T04:45:44;10.40;1.00
6627;DHT22;3349;49.830;8.748;2022-09-17T04:48:11;10.40;1.00
6627;DHT22;3349;49.830;8.748;2022-09-17T04:50:38;10.40;1.00
6627;DHT22;3349;49.830;8.748;2022-09-17T04:53:05;10.40;1.00
6627;DHT22;3349;49.830;8.748;2022-09-17T04:55:31;10.30;1.00
6627;DHT22;3349;49.830;8.748;2022-09-17T04:57:58;10.40;1.00
6627;DHT22;3349;49.830;8.748;2022-09-17T05:00:25;10.30;1.00
6627;DHT22;3349;49.830;8.748;2022-09-17T05:02:54;10.30;1.00
6627;DHT22;3349;49.830;8.748;2022-09-17T05:05:22;10.20;1.00
6627;DHT22;3349;49.830;8.748;2022-09-17T05:07:49;10.30;1.00
6627;DHT22;3349;49.830;8.748;2022-09-17T05:10:18;10.20;1.00
6627;DHT22;3349;49.830;8.748;2022-09-17T05:12:48;10.10;1.00
6627;DHT22;3349;49.830;8.748;2022-09-17T05:15:15;10.10;1.00
6627;DHT22;3349;49.830;8.748;2022-09-17T05:17:42;10.10;1.00
6627;DHT22;3349;49.830;8.748;2022-09-17T05:20:10;10.10;1.00
6627;DHT22;3349;49.830;8.748;2022-09-17T05:22:42;10.10;1.00
6627;DHT22;3349;49.830;8.748;2022-09-17T05:25:09;10.10;1.00
6627;DHT22;3349;49.830;8.748;2022-09-17T05:27:37;10.00;1.00
6627;DHT22;3349;49.830;8.748;2022-09-17T05:30:05;10.00;1.00
6627;DHT22;3349;49.830;8.748;2022-09-17T05:32:32;10.00;1.00
6627;DHT22;3349;49.830;8.748;2022-09-17T05:34:59;10.00;1.30
6627;DHT22;3349;49.830;8.748;2022-09-17T05:37:27;9.90;1.30
6627;DHT22;3349;49.830;8.748;2022-09-17T05:39:54;10.00;3.20
6627;DHT22;3349;49.830;8.748;2022-09-17T05:42:21;10.00;6.40
6627;DHT22;3349;49.830;8.748;2022-09-17T05:44:48;9.90;2.00
6627;DHT22;3349;49.830;8.748;2022-09-17T05:47:14;10.00;3.50
6627;DHT22;3349;49.830;8.748;2022-09-17T05:49:41;10.00;3.90
6627;DHT22;3349;49.830;8.748;2022-09-17T05:52:08;10.00;1.00
6627;DHT22;3349;49.830;8.748;2022-09-17T05:54:36;10.00;1.10
6627;DHT22;3349;49.830;8.748;2022-09-17T05:57:03;10.00;1.90
6627;DHT22;3349;49.830;8.748;2022-09-17T05:59:30;10.00;5.10
6627;DHT22;3349;49.830;8.748;2022-09-17T06:01:57;10.00;1.00
6627;DHT22;3349;49.830;8.748;2022-09-17T06:04:24;10.00;1.00
6627;DHT22;3349;49.830;8.748;2022-09-17T06:06:51;10.00;1.00
6627;DHT22;3349;49.830;8.748;2022-09-17T06:09:17;10.00;1.00
6627;DHT22;3349;49.830;8.748;2022-09-17T06:11:46;10.10;1.00
6627;DHT22;3349;49.830;8.748;2022-09-17T06:14:12;10.20;5.00
6627;DHT22;3349;49.830;8.748;2022-09-17T06:16:39;10.20;1.00
6627;DHT22;3349;49.830;8.748;2022-09-17T06:19:06;10.30;1.00
6627;DHT22;3349;49.830;8.748;2022-09-17T06:21:33;10.40;1.00
6627;DHT22;3349;49.830;8.748;2022-09-17T06:24:00;10.50;1.10
6627;DHT22;3349;49.830;8.748;2022-09-17T06:26:27;10.50;4.60
6627;DHT22;3349;49.830;8.748;2022-09-17T06:28:57;10.60;1.00
6627;DHT22;3349;49.830;8.748;2022-09-17T06:31:24;10.70;1.00
6627;DHT22;3349;49.830;8.748;2022-09-17T06:33:51;10.70;1.00
6627;DHT22;3349;49.830;8.748;2022-09-17T06:36:17;10.70;1.00
6627;DHT22;3349;49.830;8.748;2022-09-17T06:38:44;10.80;1.00
6627;DHT22;3349;49.830;8.748;2022-09-17T06:41:11;10.80;1.00
6627;DHT22;3349;49.830;8.748;2022-09-17T06:43:39;10.80;1.00
6627;DHT22;3349;49.830;8.748;2022-09-17T06:46:08;10.80;1.00
6627;DHT22;3349;49.830;8.748;2022-09-17T06:48:36;10.90;1.00
6627;DHT22;3349;49.830;8.748;2022-09-17T06:51:04;10.90;1.00
6627;DHT22;3349;49.830;8.748;2022-09-17T06:53:32;10.90;1.00
6627;DHT22;3349;49.830;8.748;2022-09-17T06:55:59;10.80;1.00
6627;DHT22;3349;49.830;8.748;2022-09-17T06:58:28;10.70;1.00
6627;DHT22;3349;49.830;8.748;2022-09-17T07:00:57;10.70;1.00
6627;DHT22;3349;49.830;8.748;2022-09-17T07:03:25;10.80;1.00
6627;DHT22;3349;49.830;8.748;2022-09-17T07:05:52;10.80;1.00
6627;DHT22;3349;49.830;8.748;2022-09-17T07:08:18;10.90;1.00
6627;DHT22;3349;49.830;8.748;2022-09-17T07:10:45;10.90;1.00
6627;DHT22;3349;49.830;8.748;2022-09-17T07:13:12;11.10;1.00
6627;DHT22;3349;49.830;8.748;2022-09-17T07:15:38;11.20;1.00
6627;DHT22;3349;49.830;8.748;2022-09-17T07:18:08;11.30;1.00
6627;DHT22;3349;49.830;8.748;2022-09-17T07:20:37;11.40;1.00
6627;DHT22;3349;49.830;8.748;2022-09-17T07:23:04;11.50;1.00
6627;DHT22;3349;49.830;8.748;2022-09-17T07:25:31;11.60;1.00
6627;DHT22;3349;49.830;8.748;2022-09-17T07:27:57;11.60;1.00
6627;DHT22;3349;49.830;8.748;2022-09-17T07:30:25;11.70;1.00
6627;DHT22;3349;49.830;8.748;2022-09-17T07:32:52;11.70;1.00
6627;DHT22;3349;49.830;8.748;2022-09-17T07:35:19;11.80;1.00
6627;DHT22;3349;49.830;8.748;2022-09-17T07:37:47;11.90;1.00
6627;DHT22;3349;49.830;8.748;2022-09-17T07:40:13;12.00;1.00
6627;DHT22;3349;49.830;8.748;2022-09-17T07:45:08;12.50;1.00
6627;DHT22;3349;49.830;8.748;2022-09-17T07:47:38;12.90;1.00
6627;DHT22;3349;49.830;8.748;2022-09-17T07:50:06;12.90;1.00
6627;DHT22;3349;49.830;8.748;2022-09-17T07:52:33;12.90;1.00
6627;DHT22;3349;49.830;8.748;2022-09-17T07:55:01;12.80;1.00
6627;DHT22;3349;49.830;8.748;2022-09-17T07:57:28;12.70;1.00
6627;DHT22;3349;49.830;8.748;2022-09-17T07:59:54;12.60;1.00
6627;DHT22;3349;49.830;8.748;2022-09-17T08:02:21;12.70;1.00
6627;DHT22;3349;49.830;8.748;2022-09-17T08:04:48;12.60;1.00
6627;DHT22;3349;49.830;8.748;2022-09-17T08:07:15;12.60;1.00
6627;DHT22;3349;49.830;8.748;2022-09-17T08:09:42;12.70;1.00
6627;DHT22;3349;49.830;8.748;2022-09-17T08:12:10;13.00;1.00
6627;DHT22;3349;49.830;8.748;2022-09-17T08:14:36;13.30;1.00
6627;DHT22;3349;49.830;8.748;2022-09-17T08:17:05;13.30;1.00
6627;DHT22;3349;49.830;8.748;2022-09-17T08:19:32;13.30;1.00
6627;DHT22;3349;49.830;8.748;2022-09-17T08:21:59;13.20;1.00
6627;DHT22;3349;49.830;8.748;2022-09-17T08:24:26;13.10;1.00
6627;DHT22;3349;49.830;8.748;2022-09-17T08:26:53;13.10;1.00
6627;DHT22;3349;49.830;8.748;2022-09-17T08:29:21;13.10;1.00
6627;DHT22;3349;49.830;8.748;2022-09-17T08:31:47;13.10;1.00
6627;DHT22;3349;49.830;8.748;2022-09-17T08:34:14;13.10;1.00
6627;DHT22;3349;49.830;8.748;2022-09-17T08:36:41;13.10;1.00
6627;DHT22;3349;49.830;8.748;2022-09-17T08:39:08;13.40;1.00
6627;DHT22;3349;49.830;8.748;2022-09-17T08:41:50;13.50;1.00
6627;DHT22;3349;49.830;8.748;2022-09-17T08:44:24;13.70;1.00
6627;DHT22;3349;49.830;8.748;2022-09-17T08:46:58;13.80;1.00
6627;DHT22;3349;49.830;8.748;2022-09-17T08:49:31;14.00;1.00
6627;DHT22;3349;49.830;8.748;2022-09-17T08:55:02;14.00;1.00
6627;DHT22;3349;49.830;8.748;2022-09-17T08:57:36;14.30;1.00
6627;DHT22;3349;49.830;8.748;2022-09-17T09:00:10;14.30;1.00
6627;DHT22;3349;49.830;8.748;2022-09-17T09:02:58;14.60;1.00
6627;DHT22;3349;49.830;8.748;2022-09-17T09:05:33;14.80;1.00
6627;DHT22;3349;49.830;8.748;2022-09-17T09:08:11;14.90;1.00
6627;DHT22;3349;49.830;8.748;2022-09-17T09:10:45;14.90;1.00
6627;DHT22;3349;49.830;8.748;2022-09-17T09:13:15;14.80;1.00
6627;DHT22;3349;49.830;8.748;2022-09-17T09:15:48;14.90;1.00
6627;DHT22;3349;49.830;8.748;2022-09-17T09:18:18;14.70;1.00
6627;DHT22;3349;49.830;8.748;2022-09-17T09:20:49;14.70;1.00
6627;DHT22;3349;49.830;8.748;2022-09-17T09:23:20;15.60;1.00
6627;DHT22;3349;49.830;8.748;2022-09-17T09:25:56;16.80;1.00
6627;DHT22;3349;49.830;8.748;2022-09-17T09:28:36;17.80;1.00
6627;DHT22;3349;49.830;8.748;2022-09-17T09:31:20;17.70;1.00
6627;DHT22;3349;49.830;8.748;2022-09-17T09:33:50;16.50;1.00
6627;DHT22;3349;49.830;8.748;2022-09-17T09:36:17;15.80;1.00
6627;DHT22;3349;49.830;8.748;2022-09-17T09:38:50;15.70;1.00
6627;DHT22;3349;49.830;8.748;2022-09-17T09:41:22;16.10;1.00
6627;DHT22;3349;49.830;8.748;2022-09-17T09:43:55;17.50;1.00
6627;DHT22;3349;49.830;8.748;2022-09-17T09:49:25;20.60;1.00
6627;DHT22;3349;49.830;8.748;2022-09-17T09:52:05;22.50;1.00
6627;DHT22;3349;49.830;8.748;2022-09-17T09:54:42;22.00;1.00
6627;DHT22;3349;49.830;8.748;2022-09-17T09:57:13;20.90;1.00
6627;DHT22;3349;49.830;8.748;2022-09-17T09:59:41;20.40;1.00
6627;DHT22;3349;49.830;8.748;2022-09-17T10:02:09;19.20;1.00
6627;DHT22;3349;49.830;8.748;2022-09-17T10:04:37;18.70;1.00
6627;DHT22;3349;49.830;8.748;2022-09-17T10:07:05;18.40;1.00
6627;DHT22;3349;49.830;8.748;2022-09-17T10:09:33;18.30;1.00
6627;DHT22;3349;49.830;8.748;2022-09-17T10:12:04;18.10;1.00
6627;DHT22;3349;49.830;8.748;2022-09-17T10:14:33;17.70;1.00
6627;DHT22;3349;49.830;8.748;2022-09-17T10:17:23;16.90;1.00
6627;DHT22;3349;49.830;8.748;2022-09-17T10:20:12;16.60;1.00
6627;DHT22;3349;49.830;8.748;2022-09-17T10:22:40;16.30;1.00
6627;DHT22;3349;49.830;8.748;2022-09-17T10:25:23;16.20;1.00
6627;DHT22;3349;49.830;8.748;2022-09-17T10:27:52;15.80;1.00
6627;DHT22;3349;49.830;8.748;2022-09-17T10:30:20;15.20;1.00
6627;DHT22;3349;49.830;8.748;2022-09-17T10:33:14;14.20;1.00
6627;DHT22;3349;49.830;8.748;2022-09-17T10:35:54;13.50;1.00
6627;DHT22;3349;49.830;8.748;2022-09-17T10:38:31;13.20;1.00
6627;DHT22;3349;49.830;8.748;2022-09-17T10:41:15;13.00;1.00
6627;DHT22;3349;49.830;8.748;2022-09-17T10:43:42;12.90;1.00
6627;DHT22;3349;49.830;8.748;2022-09-17T10:46:13;13.10;1.00
6627;DHT22;3349;49.830;8.748;2022-09-17T10:48:44;13.50;1.00
6627;DHT22;3349;49.830;8.748;2022-09-17T10:51:21;13.80;1.00
6627;DHT22;3349;49.830;8.748;2022-09-17T10:57:01;14.40;1.00
6627;DHT22;3349;49.830;8.748;2022-09-17T11:00:02;15.20;1.00
6627;DHT22;3349;49.830;8.748;2022-09-17T11:05:47;16.00;1.00
6627;DHT22;3349;49.830;8.748;2022-09-17T11:08:26;16.00;1.00
6627;DHT22;3349;49.830;8.748;2022-09-17T11:11:03;15.90;1.00
6627;DHT22;3349;49.830;8.748;2022-09-17T11:13:38;16.10;1.00
6627;DHT22;3349;49.830;8.748;2022-09-17T11:16:14;16.20;1.00
6627;DHT22;3349;49.830;8.748;2022-09-17T11:18:46;16.00;1.00
6627;DHT22;3349;49.830;8.748;2022-09-17T11:21:34;16.10;1.00
6627;DHT22;3349;49.830;8.748;2022-09-17T11:24:33;15.90;1.00
6627;DHT22;3349;49.830;8.748;2022-09-17T11:27:09;16.00;1.00
6627;DHT22;3349;49.830;8.748;2022-09-17T11:29:52;16.10;1.00
6627;DHT22;3349;49.830;8.748;2022-09-17T11:32:36;16.20;1.00
6627;DHT22;3349;49.830;8.748;2022-09-17T11:35:10;16.00;1.00
6627;DHT22;3349;49.830;8.748;2022-09-17T11:37:42;15.90;1.00
6627;DHT22;3349;49.830;8.748;2022-09-17T11:40:16;16.00;1.00
6627;DHT22;3349;49.830;8.748;2022-09-17T11:42:49;16.10;1.00
6627;DHT22;3349;49.830;8.748;2022-09-17T11:45:19;16.60;1.00
6627;DHT22;3349;49.830;8.748;2022-09-17T11:47:49;17.20;1.00
6627;DHT22;3349;49.830;8.748;2022-09-17T11:50:20;17.70;1.00
6627;DHT22;3349;49.830;8.748;2022-09-17T11:52:59;17.80;1.00
6627;DHT22;3349;49.830;8.748;2022-09-17T11:55:32;18.10;1.00
6627;DHT22;3349;49.830;8.748;2022-09-17T11:58:08;18.10;1.00
6627;DHT22;3349;49.830;8.748;2022-09-17T12:00:41;18.30;1.00
6627;DHT22;3349;49.830;8.748;2022-09-17T12:03:15;18.60;1.00
6627;DHT22;3349;49.830;8.748;2022-09-17T12:05:46;18.20;1.00
6627;DHT22;3349;49.830;8.748;2022-09-17T12:08:18;17.70;1.00
6627;DHT22;3349;49.830;8.748;2022-09-17T12:10:50;17.90;1.00
6627;DHT22;3349;49.830;8.748;2022-09-17T12:13:26;17.70;1.00
6627;DHT22;3349;49.830;8.748;2022-09-17T12:16:07;17.40;1.00
6627;DHT22;3349;49.830;8.748;2022-09-17T12:18:54;17.00;1.00
6627;DHT22;3349;49.830;8.748;2022-09-17T12:21:28;16.90;1.00
6627;DHT22;3349;49.830;8.748;2022-09-17T12:24:00;16.90;1.00
6627;DHT22;3349;49.830;8.748;2022-09-17T12:26:49;16.80;1.00
6627;DHT22;3349;49.830;8.748;2022-09-17T12:29:42;16.70;1.00
6627;DHT22;3349;49.830;8.748;2022-09-17T12:32:24;16.80;1.00
6627;DHT22;3349;49.830;8.748;2022-09-17T12:34:59;16.90;1.00
6627;DHT22;3349;49.830;8.748;2022-09-17T12:37:34;17.10;1.00
6627;DHT22;3349;49.830;8.748;2022-09-17T12:40:17;17.10;1.00
6627;DHT22;3349;49.830;8.748;2022-09-17T12:43:05;17.30;1.00
6627;DHT22;3349;49.830;8.748;2022-09-17T12:45:50;17.10;1.00
6627;DHT22;3349;49.830;8.748;2022-09-17T12:48:42;17.00;1.00
6627;DHT22;3349;49.830;8.748;2022-09-17T12:51:20;16.90;1.00
6627;DHT22;3349;49.830;8.748;2022-09-17T12:53:58;16.70;1.00
6627;DHT22;3349;49.830;8.748;2022-09-17T12:56:38;16.60;1.00
6627;DHT22;3349;49.830;8.748;2022-09-17T12:59:10;16.60;1.00
6627;DHT22;3349;49.830;8.748;2022-09-17T13:01:44;16.70;1.00
6627;DHT22;3349;49.830;8.748;2022-09-17T13:07:21;16.50;1.00
6627;DHT22;3349;49.830;8.748;2022-09-17T13:10:01;16.40;1.00
6627;DHT22;3349;49.830;8.748;2022-09-17T13:12:32;16.40;1.00
6627;DHT22;3349;49.830;8.748;2022-09-17T13:15:37;16.40;1.00
6627;DHT22;3349;49.830;8.748;2022-09-17T13:18:12;16.40;1.00
6627;DHT22;3349;49.830;8.748;2022-09-17T13:20:53;16.50;1.00
6627;DHT22;3349;49.830;8.748;2022-09-17T13:23:34;16.50;1.00
6627;DHT22;3349;49.830;8.748;2022-09-17T13:26:04;16.30;1.00
6627;DHT22;3349;49.830;8.748;2022-09-17T13:28:42;16.10;1.00
6627;DHT22;3349;49.830;8.748;2022-09-17T13:31:09;15.80;1.00
6627;DHT22;3349;49.830;8.748;2022-09-17T13:33:54;15.80;1.00
6627;DHT22;3349;49.830;8.748;2022-09-17T13:36:42;15.60;1.00
6627;DHT22;3349;49.830;8.748;2022-09-17T13:39:31;15.40;1.00
6627;DHT22;3349;49.830;8.748;2022-09-17T13:42:01;15.30;1.00
6627;DHT22;3349;49.830;8.748;2022-09-17T13:44:33;15.30;1.00
6627;DHT22;3349;49.830;8.748;2022-09-17T13:47:09;15.30;1.00
6627;DHT22;3349;49.830;8.748;2022-09-17T13:49:44;15.30;1.00
6627;DHT22;3349;49.830;8.748;2022-09-17T13:52:11;15.30;1.00
6627;DHT22;3349;49.830;8.748;2022-09-17T13:54:38;15.40;1.00
6627;DHT22;3349;49.830;8.748;2022-09-17T13:57:11;15.50;1.00
6627;DHT22;3349;49.830;8.748;2022-09-17T13:59:51;15.50;1.00
6627;DHT22;3349;49.830;8.748;2022-09-17T14:02:31;15.40;1.00
6627;DHT22;3349;49.830;8.748;2022-09-17T14:05:32;14.80;1.00
6627;DHT22;3349;49.830;8.748;2022-09-17T14:08:26;14.30;1.00
6627;DHT22;3349;49.830;8.748;2022-09-17T14:10:56;13.80;1.00
6627;DHT22;3349;49.830;8.748;2022-09-17T14:13:43;13.70;1.00
6627;DHT22;3349;49.830;8.748;2022-09-17T14:16:45;13.50;1.00
6627;DHT22;3349;49.830;8.748;2022-09-17T14:19:24;13.30;1.00
6627;DHT22;3349;49.830;8.748;2022-09-17T14:21:57;13.20;1.00
6627;DHT22;3349;49.830;8.748;2022-09-17T14:24:33;13.20;1.00
6627;DHT22;3349;49.830;8.748;2022-09-17T14:27:27;13.20;1.00
6627;DHT22;3349;49.830;8.748;2022-09-17T14:30:03;13.20;1.00
6627;DHT22;3349;49.830;8.748;2022-09-17T14:32:36;13.30;1.00
6627;DHT22;3349;49.830;8.748;2022-09-17T14:35:14;13.40;1.00
6627;DHT22;3349;49.830;8.748;2022-09-17T14:37:42;13.50;1.00
6627;DHT22;3349;49.830;8.748;2022-09-17T14:40:16;13.60;1.00
6627;DHT22;3349;49.830;8.748;2022-09-17T14:42:43;13.80;1.00
6627;DHT22;3349;49.830;8.748;2022-09-17T14:45:16;13.90;1.00
6627;DHT22;3349;49.830;8.748;2022-09-17T14:47:44;14.00;1.00
6627;DHT22;3349;49.830;8.748;2022-09-17T14:50:19;14.30;1.00
6627;DHT22;3349;49.830;8.748;2022-09-17T14:52:47;14.40;1.00
6627;DHT22;3349;49.830;8.748;2022-09-17T14:55:19;14.40;1.00
6627;DHT22;3349;49.830;8.748;2022-09-17T14:57:49;14.40;1.00
6627;DHT22;3349;49.830;8.748;2022-09-17T15:00:20;14.30;1.00
6627;DHT22;3349;49.830;8.748;2022-09-17T15:02:52;14.30;1.00
6627;DHT22;3349;49.830;8.748;2022-09-17T15:05:25;14.40;1.00
6627;DHT22;3349;49.830;8.748;2022-09-17T15:08:05;14.40;1.00
6627;DHT22;3349;49.830;8.748;2022-09-17T15:10:33;14.50;1.00
6627;DHT22;3349;49.830;8.748;2022-09-17T15:13:01;14.70;1.00
6627;DHT22;3349;49.830;8.748;2022-09-17T15:15:28;14.90;1.00
6627;DHT22;3349;49.830;8.748;2022-09-17T15:17:57;15.00;1.00
6627;DHT22;3349;49.830;8.748;2022-09-17T15:20:27;14.90;1.00
6627;DHT22;3349;49.830;8.748;2022-09-17T15:23:01;14.90;1.00
6627;DHT22;3349;49.830;8.748;2022-09-17T15:25:33;14.90;1.00
6627;DHT22;3349;49.830;8.748;2022-09-17T15:28:07;14.80;1.00
6627;DHT22;3349;49.830;8.748;2022-09-17T15:30:38;14.80;1.00
6627;DHT22;3349;49.830;8.748;2022-09-17T15:33:09;14.60;1.00
6627;DHT22;3349;49.830;8.748;2022-09-17T15:35:37;14.60;1.00
6627;DHT22;3349;49.830;8.748;2022-09-17T15:38:19;14.50;1.00
6627;DHT22;3349;49.830;8.748;2022-09-17T15:40:47;14.40;1.00
6627;DHT22;3349;49.830;8.748;2022-09-17T15:43:17;14.40;1.00
6627;DHT22;3349;49.830;8.748;2022-09-17T15:45:47;14.40;1.00
6627;DHT22;3349;49.830;8.748;2022-09-17T15:48:32;14.40;1.00
6627;DHT22;3349;49.830;8.748;2022-09-17T15:51:01;14.40;1.00
6627;DHT22;3349;49.830;8.748;2022-09-17T15:53:29;14.30;1.00
6627;DHT22;3349;49.830;8.748;2022-09-17T15:56:05;14.30;1.00
6627;DHT22;3349;49.830;8.748;2022-09-17T15:58:36;14.30;1.00
6627;DHT22;3349;49.830;8.748;2022-09-17T16:04:30;14.10;1.00
6627;DHT22;3349;49.830;8.748;2022-09-17T16:07:30;13.90;1.00
6627;DHT22;3349;49.830;8.748;2022-09-17T16:09:57;13.80;1.00
6627;DHT22;3349;49.830;8.748;2022-09-17T16:12:25;13.70;1.00
6627;DHT22;3349;49.830;8.748;2022-09-17T16:14:55;13.50;1.00
6627;DHT22;3349;49.830;8.748;2022-09-17T16:17:28;13.40;1.00
6627;DHT22;3349;49.830;8.748;2022-09-17T16:19:59;13.20;1.00
6627;DHT22;3349;49.830;8.748;2022-09-17T16:22:26;13.10;1.00
6627;DHT22;3349;49.830;8.748;2022-09-17T16:24:54;13.10;1.00
6627;DHT22;3349;49.830;8.748;2022-09-17T16:27:23;13.00;1.00
6627;DHT22;3349;49.830;8.748;2022-09-17T16:30:00;13.10;1.00
6627;DHT22;3349;49.830;8.748;2022-09-17T16:32:28;13.20;1.00
6627;DHT22;3349;49.830;8.748;2022-09-17T16:34:54;13.20;1.00
6627;DHT22;3349;49.830;8.748;2022-09-17T16:37:23;13.20;1.00
6627;DHT22;3349;49.830;8.748;2022-09-17T16:39:50;13.20;1.00
6627;DHT22;3349;49.830;8.748;2022-09-17T16:42:17;13.50;1.00
6627;DHT22;3349;49.830;8.748;2022-09-17T16:44:44;13.60;1.00
6627;DHT22;3349;49.830;8.748;2022-09-17T16:47:10;13.60;1.00
6627;DHT22;3349;49.830;8.748;2022-09-17T16:49:37;13.40;1.00
6627;DHT22;3349;49.830;8.748;2022-09-17T16:52:04;13.40;1.00
6627;DHT22;3349;49.830;8.748;2022-09-17T16:54:32;13.30;1.00
6627;DHT22;3349;49.830;8.748;2022-09-17T16:56:58;13.40;1.00
6627;DHT22;3349;49.830;8.748;2022-09-17T16:59:25;13.50;1.00
6627;DHT22;3349;49.830;8.748;2022-09-17T17:01:52;13.70;1.00
6627;DHT22;3349;49.830;8.748;2022-09-17T17:04:19;13.90;1.00
6627;DHT22;3349;49.830;8.748;2022-09-17T17:06:46;13.90;1.00
6627;DHT22;3349;49.830;8.748;2022-09-17T17:09:12;13.80;1.00
6627;DHT22;3349;49.830;8.748;2022-09-17T17:11:41;13.70;1.00
6627;DHT22;3349;49.830;8.748;2022-09-17T17:14:08;13.70;1.00
6627;DHT22;3349;49.830;8.748;2022-09-17T17:16:35;13.60;1.00